Time;durP1;ratioP1;P1;durP2;ratioP2;P2;SDS_P1;SDS_P2;PMS_P1;PMS_P2;Temp;Humidity;BMP_temperature;BMP_pressure;BME280_temperature;BME280_humidity;BME280_pressure;Samples;Min_cycle;Max_cycle;Signal;HPM_P1;HPM_P2
2022/05/21 00:02:07;;;;;;;27.33;8.65;;;14.90;99.90;;;15.12;91.19;101759.81;4862582;29;20128;-72
2022/05/21 00:04:36;;;;;;;23.88;9.07;;;14.80;99.90;;;15.31;90.92;101758.75;4862608;29;20057;-72
2022/05/21 00:07:05;;;;;;;29.92;9.40;;;14.90;99.90;;;15.16;91.26;101756.22;4862512;29;20057;-72
2022/05/21 00:09:33;;;;;;;29.83;9.38;;;14.90;99.90;;;15.23;91.59;101749.94;4861004;29;20062;-72
2022/05/21 00:12:02;;;;;;;33.20;9.40;;;14.90;99.90;;;15.22;91.13;101729.53;4862746;29;20045;-72
2022/05/21 00:14:34;;;;;;;33.15;9.25;;;15.00;99.90;;;15.36;90.93;101759.59;4862468;29;20055;-72
2022/05/21 00:17:02;;;;;;;30.77;10.00;;;15.00;99.90;;;15.26;91.07;101763.25;4862298;29;20053;-72
2022/05/21 00:19:31;;;;;;;28.65;9.65;;;15.00;99.90;;;15.22;91.59;101760.63;4862092;29;20048;-72
2022/05/21 00:21:59;;;;;;;29.17;9.10;;;15.00;99.90;;;15.37;91.65;101765.78;4862016;29;20077;-72
2022/05/21 00:24:28;;;;;;;28.42;8.93;;;15.00;99.90;;;15.24;91.27;101742.81;4860985;29;20415;-72
2022/05/21 00:26:56;;;;;;;32.30;9.35;;;15.00;99.90;;;15.31;91.68;101776.53;4876167;29;20045;-72
2022/05/21 00:29:26;;;;;;;34.55;9.48;;;15.00;99.90;;;15.30;91.74;101774.75;4862036;29;20075;-72
2022/05/21 00:31:56;;;;;;;30.27;9.77;;;15.00;99.90;;;15.45;91.80;101769.31;4861857;29;20049;-72
2022/05/21 00:34:25;;;;;;;38.20;9.82;;;15.10;99.90;;;15.35;91.58;101781.81;4862035;29;20109;-72
2022/05/21 00:36:53;;;;;;;36.35;9.75;;;15.10;99.90;;;15.53;91.63;101786.13;4861968;29;20041;-72
2022/05/21 00:39:22;;;;;;;27.90;9.63;;;15.20;99.90;;;15.38;91.94;101767.59;4861633;29;20561;-72
2022/05/21 00:41:50;;;;;;;41.03;10.23;;;15.10;99.90;;;15.32;92.24;101764.97;4861584;29;20045;-72
2022/05/21 00:44:19;;;;;;;35.15;10.13;;;15.10;99.90;;;15.07;92.86;101735.00;4861915;29;20136;-72
2022/05/21 00:46:49;;;;;;;35.00;9.90;;;15.00;99.90;;;15.42;92.87;101771.13;4860537;29;20436;-72
2022/05/21 00:49:24;;;;;;;35.17;10.07;;;15.00;99.90;;;15.35;92.51;101765.81;4861834;29;20056;-72
2022/05/21 00:51:59;;;;;;;33.33;10.18;;;15.10;99.90;;;15.44;92.85;101774.66;4861790;29;20046;-72
2022/05/21 00:54:32;;;;;;;36.05;10.18;;;15.10;99.90;;;15.36;92.70;101772.94;4862006;29;20118;-72
2022/05/21 00:57:05;;;;;;;35.70;10.85;;;15.10;99.90;;;15.41;92.63;101764.00;4861490;29;20041;-72
2022/05/21 00:59:48;;;;;;;33.00;10.13;;;15.10;99.90;;;15.36;92.75;101767.59;4861639;29;20049;-72
2022/05/21 01:02:19;;;;;;;32.78;8.85;;;15.10;99.90;;;15.42;91.79;101776.47;4861662;29;20113;-72
2022/05/21 01:04:50;;;;;;;32.22;10.15;;;15.10;99.90;;;15.20;92.01;101736.66;4860371;29;20469;-72
2022/05/21 01:07:19;;;;;;;;;;;15.10;99.90;;;15.26;91.77;101741.91;4861984;29;20053;-72
2022/05/21 01:09:52;;;;;;;33.03;9.07;;;15.10;99.90;;;15.35;91.32;101768.47;4861210;29;20023;-72
2022/05/21 01:12:22;;;;;;;31.23;9.80;;;15.20;99.90;;;15.38;91.56;101775.56;4861228;29;20496;-72
2022/05/21 01:14:52;;;;;;;29.83;9.30;;;15.10;99.90;;;15.36;91.46;101769.38;4861196;29;20075;-72
2022/05/21 01:17:22;;;;;;;;;;;15.10;99.90;;;15.35;91.68;101765.81;4862037;29;20053;-72
2022/05/21 01:19:58;;;;;;;31.25;9.32;;;15.10;99.90;;;15.20;91.68;101752.63;4861238;29;19933;-72
2022/05/21 01:22:29;;;;;;;33.97;9.52;;;15.10;99.90;;;15.35;92.16;101778.25;4860690;29;20053;-72
2022/05/21 01:24:58;;;;;;;34.00;9.90;;;15.00;99.90;;;15.42;91.99;101785.34;4861087;29;20101;-72
2022/05/21 01:27:28;;;;;;;30.60;8.88;;;15.10;99.90;;;15.05;92.02;101714.59;4861232;29;20128;-72
2022/05/21 01:29:58;;;;;;;32.83;9.25;;;15.10;99.90;;;15.42;91.64;101789.78;4861302;29;20076;-72
2022/05/21 01:32:28;;;;;;;31.15;8.68;;;15.10;99.90;;;15.44;91.48;101777.34;4860994;29;20053;-72
2022/05/21 01:34:57;;;;;;;34.00;8.75;;;15.20;99.90;;;15.46;91.74;101784.44;4861043;29;20413;-72
2022/05/21 01:37:25;;;;;;;34.65;8.40;;;15.10;99.90;;;15.37;91.65;101785.34;4859953;29;20476;-72
2022/05/21 01:39:55;;;;;;;34.10;8.77;;;15.10;99.90;;;15.34;91.97;101781.84;4860779;29;20449;-72
2022/05/21 01:42:24;;;;;;;29.60;8.70;;;15.10;99.90;;;15.41;91.66;101783.53;4860842;29;20053;-72
2022/05/21 01:44:52;;;;;;;32.30;8.75;;;15.10;99.90;;;15.40;91.64;101787.13;4861061;29;20296;-72
2022/05/21 01:47:22;;;;;;;37.67;8.27;;;15.10;99.90;;;15.38;91.43;101787.13;4861276;29;20564;-72
2022/05/21 01:49:51;;;;;;;33.75;9.00;;;15.10;99.90;;;15.45;91.43;101795.13;4861027;29;20501;-72
2022/05/21 01:52:20;;;;;;;37.33;8.20;;;15.10;99.90;;;15.41;91.44;101785.34;4860778;29;20049;-72
2022/05/21 01:54:48;;;;;;;32.40;8.05;;;15.10;99.90;;;15.35;91.44;101788.91;4860995;29;20121;-72
2022/05/21 01:57:18;;;;;;;36.40;9.65;;;15.10;99.90;;;15.36;91.66;101796.94;4860946;29;20056;-72
2022/05/21 01:59:47;;;;;;;35.10;9.40;;;15.10;99.90;;;15.33;91.61;101791.59;4860590;29;20504;-72
2022/05/21 02:02:15;;;;;;;32.42;9.00;;;15.10;99.90;;;15.44;91.33;101788.00;4860392;29;20068;-72
2022/05/21 02:04:43;;;;;;;30.58;8.20;;;15.10;99.90;;;15.38;91.23;101799.56;4859677;29;20045;-72
2022/05/21 02:07:12;;;;;;;37.33;9.13;;;15.10;99.90;;;15.37;91.48;101800.44;4860769;29;20050;-72
2022/05/21 02:09:40;;;;;;;35.70;8.68;;;15.10;99.90;;;15.43;91.14;101804.91;4860179;29;20137;-71
2022/05/21 02:12:14;;;;;;;35.97;8.15;;;15.10;99.90;;;15.11;91.16;101774.06;4859232;29;20107;-72
2022/05/21 02:14:44;;;;;;;31.83;8.57;;;15.10;99.90;;;15.31;91.03;101784.53;4860750;29;20056;-71
2022/05/21 02:17:15;;;;;;;36.15;8.88;;;15.10;99.90;;;15.38;90.87;101795.13;4860528;29;20507;-71
2022/05/21 02:19:43;;;;;;;30.20;7.50;;;15.10;99.90;;;15.38;90.86;101795.13;4860534;29;20045;-71
2022/05/21 02:22:11;;;;;;;30.85;8.73;;;15.10;99.90;;;15.22;90.12;101772.16;4860705;29;20045;-72
2022/05/21 02:24:40;;;;;;;32.88;8.15;;;15.10;99.90;;;15.39;90.02;101796.00;4860404;29;20128;-72
2022/05/21 02:27:09;;;;;;;31.95;8.43;;;15.10;99.90;;;15.10;89.65;101734.06;4860246;29;20057;-71
2022/05/21 02:29:39;;;;;;;37.72;9.35;;;15.10;99.90;;;15.42;89.46;101796.03;4859359;29;20547;-71
2022/05/21 02:32:11;;;;;;;31.83;8.43;;;15.10;99.90;;;13.53;89.29;101501.94;4860357;29;20132;-72
2022/05/21 02:34:39;;;;;;;33.70;8.75;;;15.00;99.90;;;15.38;89.32;101802.25;4863483;29;20530;-72
2022/05/21 02:39:54;;;;;;;28.55;7.80;;;15.10;99.90;;;15.46;88.10;101812.88;4863846;29;20128;-72
2022/05/21 02:45:11;;;;;;;24.25;7.90;;;15.20;99.90;;;15.55;86.43;101807.44;4863696;29;20508;-71
2022/05/21 02:47:41;;;;;;;28.67;8.30;;;15.20;99.90;;;15.18;85.79;101773.09;4863632;29;20404;-72
2022/05/21 02:50:12;;;;;;;28.15;7.85;;;15.20;99.90;;;15.36;85.41;101796.94;4863908;29;20088;-71
2022/05/21 02:52:44;;;;;;;21.35;7.10;;;15.20;99.90;;;15.41;84.36;101798.66;4863923;29;20050;-72
2022/05/21 02:55:14;;;;;;;26.95;7.43;;;15.10;99.90;;;15.42;83.83;101803.13;4863271;29;20053;-72
2022/05/21 02:57:44;;;;;;;21.63;6.30;;;15.10;99.90;;;15.53;82.98;101794.13;4863683;29;20058;-72
2022/05/21 03:00:17;;;;;;;28.30;7.18;;;15.20;99.90;;;15.51;82.23;101806.59;4862312;29;20050;-72
2022/05/21 03:02:47;;;;;;;22.33;6.65;;;15.20;99.90;;;15.46;82.12;101803.09;4863401;29;20508;-72
2022/05/21 03:05:16;;;;;;;23.35;6.20;;;15.20;99.90;;;15.49;81.55;101803.06;4862261;29;20153;-72
2022/05/21 03:07:48;;;;;;;28.17;6.97;;;15.20;99.90;;;15.52;81.27;101812.81;4863321;29;20136;-71
2022/05/21 03:10:22;;;;;;;26.33;7.03;;;15.30;99.90;;;15.33;81.00;101762.28;4863030;29;20519;-71
2022/05/21 03:12:52;;;;;;;25.27;7.00;;;15.30;99.90;;;15.58;80.63;101804.75;4863200;29;20055;-71
2022/05/21 03:15:22;;;;;;;;;;;15.30;99.90;;;14.91;80.20;101696.06;4863565;29;20560;-71
2022/05/21 03:17:52;;;;;;;28.65;7.65;;;15.30;99.90;;;15.54;80.47;101805.69;4863058;29;19924;-72
2022/05/21 03:20:22;;;;;;;22.67;7.40;;;15.20;99.90;;;15.46;80.17;101808.44;4863222;29;20472;-71
2022/05/21 03:22:51;;;;;;;27.85;7.18;;;15.20;99.90;;;15.55;80.05;101802.09;4863630;29;20045;-71
2022/05/21 03:25:19;;;;;;;24.65;7.13;;;15.30;99.90;;;15.53;79.80;101803.91;4863079;29;20068;-72
2022/05/21 03:27:49;;;;;;;28.87;7.37;;;15.20;99.90;;;15.63;79.47;101813.59;4861964;29;20567;-71
2022/05/21 03:30:21;;;;;;;23.88;6.45;;;15.30;99.90;;;15.51;79.72;101819.91;4862837;29;20447;-71
2022/05/21 03:32:51;;;;;;;25.90;7.00;;;15.30;99.90;;;15.59;79.29;101825.19;4861646;29;20106;-71
2022/05/21 03:35:21;;;;;;;26.42;7.00;;;15.30;99.90;;;15.48;79.06;101795.97;4862819;29;20050;-72
2022/05/21 03:37:51;;;;;;;28.17;7.33;;;15.30;99.90;;;15.60;79.29;101813.63;4862760;29;20128;-71
2022/05/21 03:40:25;;;;;;;22.83;7.13;;;15.30;99.90;;;15.54;79.14;101817.25;4862872;29;20458;-71
2022/05/21 03:42:54;;;;;;;21.00;6.40;;;15.30;99.90;;;15.67;78.86;101820.66;4862588;29;20049;-71
2022/05/21 03:45:23;;;;;;;26.98;7.05;;;15.30;99.90;;;15.56;78.54;101818.13;4861290;29;20045;-71
2022/05/21 03:47:53;;;;;;;21.05;6.82;;;15.40;99.90;;;15.52;78.95;101796.81;4863184;29;20045;-71
2022/05/21 03:50:27;;;;;;;25.23;7.82;;;15.30;99.90;;;15.57;78.81;101818.97;4862577;29;20069;-71
2022/05/21 03:52:55;;;;;;;28.48;7.20;;;15.30;99.90;;;15.63;78.71;101810.91;4862539;29;20053;-71
2022/05/21 03:55:23;;;;;;;27.00;7.00;;;15.30;99.90;;;15.14;78.53;101739.38;4862429;29;20464;-71
2022/05/21 03:57:52;;;;;;;22.67;7.28;;;15.30;99.90;;;15.44;78.84;101826.22;4862397;29;20054;-72
2022/05/21 04:00:22;;;;;;;22.38;7.07;;;15.20;99.90;;;15.46;78.77;101824.44;4861344;29;20111;-71
2022/05/21 04:02:50;;;;;;;22.65;7.03;;;15.20;99.90;;;15.41;78.81;101822.66;4862264;29;20128;-71
2022/05/21 04:05:20;;;;;;;26.23;6.65;;;15.20;99.90;;;15.50;78.73;101835.94;4862195;29;20504;-72
2022/05/21 04:07:49;;;;;;;;;;;15.20;99.90;;;15.34;79.13;101819.16;4862644;29;20042;-72
2022/05/21 04:10:18;;;;;;;22.83;6.47;;;15.20;99.90;;;15.46;79.23;101842.19;4862160;29;19967;-71
2022/05/21 04:12:47;;;;;;;21.73;6.13;;;15.20;99.90;;;15.45;78.93;101838.63;4862712;29;20061;-71
2022/05/21 04:15:16;;;;;;;21.48;6.43;;;15.20;99.90;;;15.38;79.44;101844.91;4862090;29;20124;-71
2022/05/21 04:17:44;;;;;;;22.52;6.88;;;15.10;99.90;;;15.35;79.15;101836.91;4862195;29;20054;-71
2022/05/21 04:20:16;;;;;;;25.42;7.68;;;15.10;99.90;;;15.39;79.46;101852.88;4862378;29;20053;-71
2022/05/21 04:22:46;;;;;;;27.42;7.13;;;15.10;99.90;;;15.33;79.00;101842.25;4862291;29;20090;-71
2022/05/21 04:25:15;;;;;;;29.20;7.22;;;15.10;99.90;;;15.16;79.94;101846.84;4861909;29;20132;-71
2022/05/21 04:27:44;;;;;;;24.45;7.15;;;15.00;99.90;;;15.22;79.66;101854.81;4862256;29;20168;-71
2022/05/21 04:30:19;;;;;;;24.67;8.00;;;15.00;99.90;;;15.35;79.93;101861.78;4862341;29;20059;-71
2022/05/21 04:32:48;;;;;;;22.70;6.53;;;15.10;99.90;;;15.29;79.53;101856.50;4860837;29;20060;-71
2022/05/21 04:35:19;;;;;;;22.55;6.97;;;15.10;99.90;;;15.33;79.22;101857.38;4861948;29;20053;-71
2022/05/21 04:37:50;;;;;;;22.90;6.30;;;15.10;99.90;;;15.30;79.36;101854.72;4861681;29;20664;-71
2022/05/21 04:40:22;;;;;;;24.27;6.85;;;15.10;99.90;;;15.33;79.53;101865.38;4861612;29;20041;-72
2022/05/21 04:42:51;;;;;;;18.10;6.88;;;15.10;99.90;;;15.42;79.56;101864.44;4861567;29;20050;-72
2022/05/21 04:45:20;;;;;;;26.38;7.90;;;15.20;99.90;;;15.38;79.71;101867.13;4861737;29;20049;-72
2022/05/21 04:47:48;;;;;;;25.20;7.97;;;15.10;99.90;;;15.41;79.59;101863.53;4860415;29;20105;-71
2022/05/21 04:50:16;;;;;;;29.98;7.70;;;15.20;99.90;;;15.50;79.27;101868.84;4861397;29;20069;-71
2022/05/21 04:52:45;;;;;;;27.00;7.10;;;15.30;99.90;;;15.55;78.96;101866.09;4861393;29;20049;-71
2022/05/21 04:55:14;;;;;;;25.88;6.43;;;15.30;99.90;;;15.61;78.64;101866.94;4861170;29;20041;-71
2022/05/21 04:57:43;;;;;;;19.67;7.03;;;15.30;99.90;;;15.69;78.75;101872.22;4860992;29;20488;-71
2022/05/21 05:00:13;;;;;;;22.33;7.63;;;15.40;99.90;;;15.84;78.20;101880.97;4861201;29;20575;-71
2022/05/21 05:02:41;;;;;;;25.55;6.55;;;15.50;99.90;;;15.80;78.23;101884.56;4860216;29;20054;-72
2022/05/21 05:05:10;;;;;;;25.23;7.00;;;15.50;99.90;;;15.68;77.57;101838.44;4860269;29;20155;-71
2022/05/21 05:07:39;;;;;;;30.45;7.53;;;15.70;99.90;;;15.93;77.53;101894.19;4860119;29;20452;-71
2022/05/21 05:10:09;;;;;;;25.73;7.15;;;15.70;99.90;;;15.75;76.91;101850.81;4861249;29;20058;-72
2022/05/21 05:12:39;;;;;;;29.42;7.45;;;15.70;99.90;;;15.93;76.60;101896.88;4860165;29;20076;-71
2022/05/21 05:15:09;;;;;;;24.65;6.85;;;15.70;99.90;;;16.01;76.93;101899.47;4860990;29;20081;-71
2022/05/21 05:17:38;;;;;;;30.52;7.13;;;15.70;99.90;;;16.17;76.58;101903.75;4861034;29;20053;-72
2022/05/21 05:20:08;;;;;;;26.08;6.72;;;15.80;99.90;;;16.00;76.46;101881.69;4861125;29;20133;-71
2022/05/21 05:22:36;;;;;;;23.48;6.57;;;15.80;99.90;;;16.20;76.33;101912.59;4861270;29;20056;-71
2022/05/21 05:25:07;;;;;;;24.77;6.55;;;15.90;99.90;;;16.22;76.28;101904.56;4859969;29;20552;-72
2022/05/21 05:27:35;;;;;;;20.83;6.53;;;16.00;99.90;;;16.33;76.26;101909.81;4861222;29;20080;-71
2022/05/21 05:30:06;;;;;;;25.77;6.97;;;16.00;99.90;;;16.44;76.46;101911.44;4859911;29;20140;-71
2022/05/21 05:32:34;;;;;;;22.80;6.45;;;16.10;99.90;;;16.52;76.03;101909.59;4860953;29;20408;-71
2022/05/21 05:35:04;;;;;;;23.55;6.60;;;16.20;99.90;;;16.11;75.29;101832.63;4860805;29;20082;-71
2022/05/21 05:37:33;;;;;;;24.48;7.13;;;16.30;99.90;;;16.47;76.05;101910.53;4861035;29;20080;-71
2022/05/21 05:40:01;;;;;;;24.92;6.95;;;16.20;99.90;;;16.59;75.58;101910.44;4861158;29;20049;-72
2022/05/21 05:42:30;;;;;;;21.17;6.85;;;16.30;99.90;;;16.62;74.84;101900.59;4861004;29;20053;-71
2022/05/21 05:45:00;;;;;;;23.38;6.32;;;16.40;99.90;;;16.09;75.88;101908.28;4860932;29;20140;-71
2022/05/21 05:47:31;;;;;;;20.42;7.05;;;15.90;99.90;;;16.22;75.54;101907.22;4860731;29;20054;-71
2022/05/21 05:50:00;;;;;;;21.35;6.78;;;16.00;99.90;;;16.27;76.32;101908.97;4860749;29;20136;-71
2022/05/21 05:52:28;;;;;;;24.50;6.70;;;16.00;99.90;;;16.34;76.09;101907.09;4860660;29;20113;-72
2022/05/21 05:54:57;;;;;;;21.40;6.70;;;16.00;99.90;;;16.36;76.03;101907.06;4860696;29;20041;-71
2022/05/21 05:57:25;;;;;;;17.08;6.28;;;16.10;99.90;;;16.38;75.58;101911.50;4860622;29;20055;-71
2022/05/21 05:59:53;;;;;;;23.23;6.90;;;16.10;99.90;;;16.44;75.88;101916.78;4860845;29;20568;-71
2022/05/21 06:05:15;;;;;;;22.42;6.40;;;16.20;99.90;;;16.43;74.84;101915.03;4859549;29;20453;-70
2022/05/21 06:07:45;;;;;;;21.70;7.35;;;16.20;99.90;;;16.44;75.19;101927.47;4862523;29;20049;-70
2022/05/21 06:10:16;;;;;;;24.63;7.43;;;16.20;99.90;;;16.44;75.32;101914.13;4864253;29;20381;-69
2022/05/21 06:12:45;;;;;;;26.73;7.45;;;16.30;99.90;;;16.61;75.25;101916.59;4863204;29;20085;-69
2022/05/21 06:15:14;;;;;;;23.40;6.82;;;16.40;99.90;;;16.87;74.86;101941.22;4864129;29;20517;-69
2022/05/21 06:17:43;;;;;;;21.67;6.43;;;16.60;99.90;;;16.99;74.52;101936.59;4863097;29;20467;-69
2022/05/21 06:20:16;;;;;;;24.42;6.82;;;16.80;99.90;;;17.01;73.63;101953.50;4863823;29;20556;-66
2022/05/21 06:22:48;;;;;;;24.83;6.88;;;16.80;99.90;;;16.95;73.94;101940.22;4864245;29;20105;-65
2022/05/21 06:25:20;;;;;;;21.88;6.43;;;16.80;99.90;;;16.64;73.87;101889.88;4864149;29;20057;-65
2022/05/21 06:27:51;;;;;;;20.67;6.30;;;16.80;99.90;;;16.85;73.70;101948.38;4864191;29;20128;-64
2022/05/21 06:30:24;;;;;;;25.55;7.53;;;16.70;99.90;;;16.88;74.44;101924.28;4862729;29;20061;-65
2022/05/21 06:32:52;;;;;;;21.60;6.50;;;16.80;99.90;;;17.11;74.12;101954.28;4863828;29;20074;-66
2022/05/21 06:35:23;;;;;;;22.77;6.15;;;16.90;99.90;;;17.02;73.13;101951.72;4863923;29;20132;-64
2022/05/21 06:37:51;;;;;;;24.27;7.35;;;16.90;99.90;;;17.09;73.81;101956.94;4863720;29;20080;-66
2022/05/21 06:40:20;;;;;;;25.25;7.00;;;16.90;99.90;;;17.00;73.05;101930.34;4863513;29;20512;-64
2022/05/21 06:42:48;;;;;;;21.42;6.55;;;17.00;99.90;;;17.33;72.73;101960.19;4863342;29;20083;-66
2022/05/21 06:45:17;;;;;;;23.33;7.07;;;17.10;99.90;;;17.39;72.40;101981.50;4863291;29;20433;-67
2022/05/21 06:47:46;;;;;;;21.05;6.95;;;17.20;99.90;;;17.41;71.57;101982.34;4863928;29;20147;-67
2022/05/21 06:50:14;;;;;;;26.00;6.88;;;17.20;99.90;;;17.37;72.04;101967.25;4863669;29;20078;-68
2022/05/21 06:52:44;;;;;;;22.08;6.72;;;17.30;99.90;;;17.54;71.70;101994.66;4863363;29;20188;-67
2022/05/21 06:55:14;;;;;;;21.73;7.35;;;17.30;99.90;;;17.66;71.41;101992.72;4863347;29;20049;-68
2022/05/21 06:57:42;;;;;;;24.95;7.70;;;17.40;99.90;;;17.81;72.01;101989.78;4863458;29;20122;-67
2022/05/21 07:00:12;;;;;;;26.30;7.13;;;17.60;99.90;;;17.66;70.95;101940.97;4863227;29;20401;-67
2022/05/21 07:02:40;;;;;;;26.27;7.00;;;17.80;99.90;;;18.00;70.35;102001.09;4863112;29;20052;-67
2022/05/21 07:07:57;;;;;;;20.02;6.22;;;17.70;99.90;;;17.86;70.05;102001.31;4863195;29;20053;-63
2022/05/21 07:10:28;;;;;;;21.98;6.18;;;17.70;99.90;;;17.83;70.13;102003.13;4862890;29;20096;-65
2022/05/21 07:12:56;;;;;;;27.25;8.30;;;17.60;99.90;;;17.68;69.96;102004.28;4861982;29;20060;-66
2022/05/21 07:15:26;;;;;;;25.17;7.17;;;17.50;99.90;;;17.53;70.65;101998.28;4863089;29;20163;-64
2022/05/21 07:18:01;;;;;;;24.15;7.22;;;17.50;99.90;;;17.61;70.95;101994.59;4863032;29;20812;-63
2022/05/21 07:20:30;;;;;;;25.92;6.68;;;17.50;99.90;;;17.73;70.67;102018.47;4862308;29;20478;-63
2022/05/21 07:23:01;;;;;;;23.73;6.97;;;17.50;99.90;;;17.70;70.29;102025.66;4862830;29;20073;-63
2022/05/21 07:25:32;;;;;;;20.33;6.85;;;17.50;99.90;;;17.60;70.63;102024.03;4862946;29;20113;-65
2022/05/21 07:28:01;;;;;;;21.85;7.07;;;17.40;99.90;;;17.20;70.51;101937.19;4862805;29;20488;-67
2022/05/21 07:30:31;;;;;;;20.38;6.35;;;17.50;99.90;;;17.69;70.85;102038.16;4862603;29;20079;-65
2022/05/21 07:32:59;;;;;;;21.17;6.43;;;17.50;99.90;;;17.76;69.82;102036.28;4863222;29;20077;-65
2022/05/21 07:35:30;;;;;;;20.38;6.35;;;17.60;99.90;;;17.86;70.15;102025.41;4862994;29;20162;-65
2022/05/21 07:37:59;;;;;;;25.08;6.47;;;17.70;99.90;;;18.01;69.51;102022.47;4862701;29;20049;-73
2022/05/21 07:40:28;;;;;;;24.90;6.93;;;17.90;99.90;;;17.91;69.22;102025.31;4862947;29;20045;-72
2022/05/21 07:43:11;;;;;;;23.77;7.20;;;17.80;99.90;;;17.72;69.88;102011.34;4862853;29;20045;-69
2022/05/21 07:45:41;;;;;;;21.17;7.05;;;17.60;99.90;;;17.76;69.66;102044.31;4862960;29;20054;-70
2022/05/21 07:48:12;;;;;;;23.20;7.20;;;17.60;99.90;;;18.03;70.62;102052.78;4862732;29;20050;-70
2022/05/21 07:50:43;;;;;;;24.17;7.35;;;17.80;99.90;;;17.44;69.84;101937.72;4862675;29;20110;-69
2022/05/21 07:53:16;;;;;;;28.02;7.25;;;17.90;99.90;;;18.31;69.71;102042.47;4862546;29;20090;-70
2022/05/21 07:55:46;;;;;;;21.77;6.28;;;18.10;99.90;;;18.36;69.19;102051.34;4861318;29;20503;-70
2022/05/21 07:58:15;;;;;;;22.08;6.95;;;18.20;99.90;;;18.34;69.37;102045.13;4862355;29;20098;-69
2022/05/21 08:00:44;;;;;;;21.92;6.63;;;18.20;99.90;;;18.54;68.70;102061.75;4876750;29;20563;-70
2022/05/21 08:03:13;;;;;;;18.38;5.82;;;18.30;99.90;;;18.55;68.31;102066.22;4876642;29;20064;-70
2022/05/21 08:05:44;;;;;;;24.45;7.18;;;18.30;99.90;;;18.73;68.18;102059.63;4861118;29;20088;-69
2022/05/21 08:08:14;;;;;;;19.02;6.70;;;18.50;99.90;;;18.91;66.94;102056.63;4862373;29;20080;-70
2022/05/21 08:10:46;;;;;;;22.80;6.80;;;18.70;99.90;;;18.87;66.03;102061.13;4862125;29;20057;-69
2022/05/21 08:13:17;;;;;;;24.50;7.05;;;18.70;99.90;;;18.82;66.43;102059.44;4862477;29;20125;-70
2022/05/21 08:15:46;;;;;;;27.50;6.10;;;18.60;99.90;;;18.77;66.01;102070.28;4862129;29;20045;-69
2022/05/21 08:18:15;;;;;;;28.58;8.20;;;18.60;99.90;;;18.85;66.42;102062.94;4861941;29;20479;-70
2022/05/21 08:20:43;;;;;;;24.48;7.35;;;18.60;99.90;;;18.93;66.54;102065.47;4862451;29;20049;-69
2022/05/21 08:28:51;;;;;;;24.65;7.32;;;18.50;99.90;;;18.72;68.04;102058.75;4861807;29;20572;-69
2022/05/21 08:31:20;;;;;;;29.50;9.60;;;18.50;99.90;;;18.97;67.07;102063.66;4860799;29;20512;-69
2022/05/21 08:33:48;;;;;;;27.52;10.65;;;18.70;99.90;;;19.19;65.69;102062.28;4861907;29;20073;-70
2022/05/21 08:36:16;;;;;;;25.27;9.82;;;18.90;99.90;;;19.43;64.97;102064.50;4861867;29;20056;-69
2022/05/21 08:38:48;;;;;;;22.10;6.33;;;19.20;99.90;;;19.26;65.12;102066.63;4861711;29;20106;-69
2022/05/21 08:41:22;;;;;;;26.70;7.80;;;19.10;99.90;;;19.31;64.96;102056.66;4861654;29;20056;-70
2022/05/21 08:44:03;;;;;;;19.13;6.78;;;19.10;99.90;;;19.55;64.31;102077.66;4860470;29;20109;-70
2022/05/21 08:47:05;;;;;;;29.45;7.28;;;19.30;99.90;;;19.87;63.82;102074.22;4861297;29;20488;-70
2022/05/21 08:49:40;;;;;;;25.63;6.53;;;19.50;99.90;;;20.02;63.55;102064.00;4861500;29;20054;-69
2022/05/21 08:52:19;;;;;;;19.65;6.25;;;19.80;99.90;;;19.98;62.01;102062.31;4861675;29;20588;-69
2022/05/21 08:54:51;;;;;;;21.70;6.70;;;19.80;99.90;;;19.77;62.41;102065.50;4861384;29;20109;-70
2022/05/21 08:57:27;;;;;;;24.83;6.97;;;19.60;99.90;;;19.83;62.84;102073.41;4861436;29;20140;-69
2022/05/21 09:00:03;;;;;;;19.58;6.75;;;19.60;99.90;;;19.94;64.26;102068.66;4861667;29;20052;-69
2022/05/21 09:02:34;;;;;;;24.67;7.10;;;19.70;99.90;;;19.90;63.34;102075.03;4861188;29;20508;-70
2022/05/21 09:05:03;;;;;;;;;;;19.70;99.90;;;19.98;63.12;102072.16;4861910;29;20045;-69
2022/05/21 09:07:49;;;;;;;19.55;6.60;;;19.80;99.90;;;20.02;63.15;102080.13;4875503;29;19934;-69
2022/05/21 09:10:34;;;;;;;18.65;6.07;;;19.80;99.90;;;19.93;63.69;102084.81;4861163;29;20141;-69
2022/05/21 09:13:10;;;;;;;18.85;6.10;;;19.70;99.90;;;19.71;62.98;102022.66;4861119;29;20069;-70
2022/05/21 09:18:26;;;;;;;21.02;6.63;;;19.70;99.90;;;19.92;62.71;102075.00;4861398;29;20097;-69
2022/05/21 09:21:01;;;;;;;20.13;6.30;;;19.70;99.90;;;20.08;62.85;102077.28;4860910;29;20045;-69
2022/05/21 09:23:49;;;;;;;19.95;6.28;;;19.80;99.90;;;20.00;62.51;102075.69;4860984;29;20041;-69
2022/05/21 09:26:21;;;;;;;20.77;6.90;;;19.80;99.90;;;20.12;62.79;102084.34;4861472;29;20136;-70
2022/05/21 09:28:49;;;;;;;21.77;6.50;;;19.80;99.90;;;20.07;62.22;102075.53;4861096;29;20536;-69
2022/05/21 09:31:29;;;;;;;19.23;6.25;;;19.80;99.90;;;20.23;62.94;102086.78;4861057;29;20081;-69
2022/05/21 09:34:14;;;;;;;;;;;19.90;99.90;;;20.09;62.52;102079.03;4861567;29;20049;-70
2022/05/21 09:36:42;;;;;;;26.77;6.72;;;19.80;99.90;;;19.95;62.30;102074.94;4860672;29;20404;-70
2022/05/21 09:39:32;;;;;;;20.85;6.47;;;19.70;99.90;;;20.00;62.25;102071.22;4861051;29;20061;-69
2022/05/21 09:47:51;;;;;;;23.05;6.63;;;19.90;99.90;;;20.21;63.21;102076.09;4859569;29;20517;-69
2022/05/21 09:50:24;;;;;;;21.90;7.32;;;20.00;99.90;;;20.13;62.14;102078.03;4860322;29;20060;-69
2022/05/21 09:52:53;;;;;;;19.52;7.15;;;19.90;99.90;;;20.08;62.26;102053.09;4860679;29;20492;-69
2022/05/21 09:55:26;;;;;;;21.38;6.85;;;20.00;99.90;;;20.29;62.32;102081.28;4860536;29;20184;-70
2022/05/21 09:58:10;;;;;;;19.50;6.57;;;20.00;99.90;;;20.33;61.42;102091.03;4860896;29;20053;-69
2022/05/21 10:00:39;;;;;;;19.48;6.45;;;20.10;99.90;;;20.32;60.76;102091.97;4860831;29;20045;-71
2022/05/21 10:03:11;;;;;;;19.33;7.38;;;20.10;99.90;;;20.21;61.09;102108.34;4860471;29;20487;-70
2022/05/21 10:05:46;;;;;;;21.92;7.10;;;20.00;99.90;;;20.15;61.40;102100.38;4860482;29;20045;-70
2022/05/21 10:11:19;;;;;;;24.25;7.35;;;20.00;99.90;;;20.09;61.51;102103.22;4860370;29;20064;-69
2022/05/21 10:13:56;;;;;;;19.80;7.13;;;19.90;99.90;;;20.17;61.81;102109.28;4860597;29;20461;-69
2022/05/21 10:16:33;;;;;;;24.63;7.00;;;19.90;99.90;;;20.24;61.70;102115.44;4859635;29;20104;-70
2022/05/21 10:19:12;;;;;;;22.00;7.13;;;19.90;99.90;;;20.10;61.35;102115.75;4860765;29;20057;-70
2022/05/21 10:21:55;;;;;;;23.25;6.95;;;19.80;99.90;;;20.17;62.72;102111.97;4860599;29;20094;-70
2022/05/21 10:24:37;;;;;;;20.00;6.78;;;19.80;99.90;;;20.17;61.62;102111.13;4860435;29;20128;-70
2022/05/21 10:27:26;;;;;;;23.83;6.55;;;19.90;99.90;;;20.20;61.38;102111.97;4860470;29;20415;-70
2022/05/21 10:30:07;;;;;;;19.40;6.82;;;20.00;99.90;;;20.20;62.02;102109.28;4860234;29;20077;-70
2022/05/21 10:33:18;;;;;;;;;;;20.00;99.90;;;20.19;60.76;102099.44;4860813;29;20456;-70
2022/05/21 10:36:13;;;;;;;18.52;7.30;;;20.10;99.90;;;20.34;61.27;102103.56;4859330;29;19924;-70
2022/05/21 10:39:21;;;;;;;21.85;6.93;;;20.10;99.90;;;20.41;61.41;102121.28;4860546;29;20064;-70
2022/05/21 10:42:21;;;;;;;28.30;7.90;;;20.10;99.90;;;20.34;62.22;102119.69;4829096;29;20081;-70
2022/05/21 10:45:09;;;;;;;25.20;7.22;;;20.10;99.90;;;20.31;61.63;102120.63;4860407;29;20088;-70
2022/05/21 10:48:21;;;;;;;21.25;7.25;;;20.10;99.90;;;20.14;61.32;102117.44;4860090;29;20045;-70
2022/05/21 10:50:55;;;;;;;24.98;7.50;;;19.90;99.90;;;20.16;61.71;102115.59;4860209;29;20054;-70
2022/05/21 10:53:52;;;;;;;18.67;6.40;;;19.90;99.90;;;20.29;62.58;102114.41;4860339;29;20049;-70
2022/05/21 10:56:42;;;;;;;20.73;6.82;;;19.90;99.90;;;20.20;61.04;102089.56;4863481;29;20042;-70